ADDS METAR Data INFO
IDs: Format: Raw Decoded Include TAF

Data at: 1938 UTC 17 Feb 2018

KEMV 171915Z AUTO 05005KT 10SM BKN036 OVC050 07/01 A3018 RMK AO2
KEMV 171855Z AUTO 09003KT 10SM SCT029 OVC040 07/01 A3021 RMK AO2
KEMV 171835Z AUTO 07007KT 10SM SCT029 SCT034 OVC042 06/01 A3022 RMK AO2
KEMV 171815Z AUTO 07005KT 10SM SCT029 OVC044 06/00 A3024 RMK AO2
KEMV 171755Z AUTO 07003KT BKN029 OVC044 06/00 A3026 RMK AO2
KEMV 171735Z AUTO 06003KT 10SM BKN029 OVC044 06/00 A3029 RMK AO2
KEMV 171715Z AUTO 06004KT 10SM SCT029 OVC046 06/00 A3030 RMK AO2
KEMV 171655Z AUTO 08007KT 10SM SCT029 BKN046 OVC050 06/00 A3031 RMK AO2
KEMV 171635Z AUTO 08005KT 10SM SCT047 OVC060 06/00 A3032 RMK AO2
KEMV 171615Z AUTO 09007KT SCT047 OVC060 06/00 A3032 RMK AO2
KEMV 171555Z AUTO 05006KT 10SM BKN047 OVC060 05/00 A3035 RMK AO2
KEMV 171535Z AUTO 08007KT 10SM OVC060 05/00 A3036 RMK AO2
KEMV 171515Z AUTO 07005KT 10SM OVC060 05/00 A3037 RMK AO2
KEMV 171455Z AUTO 07007KT 10SM OVC060 05/M01 A3036 RMK AO2
KEMV 171435Z AUTO 10SM OVC060 05/M01 A3037 RMK AO2
KEMV 171415Z AUTO 06006KT 10SM BKN070 BKN080 05/M01 A3037 RMK AO2
KEMV 171355Z AUTO 02009KT 10SM SCT048 SCT080 04/M01 A3038 RMK AO2
KEMV 171335Z AUTO 05006KT 10SM OVC048 04/M01 A3037 RMK AO2
KEMV 171315Z AUTO 01005KT 10SM OVC048 03/M01 A3038 RMK AO2
KEMV 171255Z AUTO 02005KT 10SM OVC048 03/M01 A3038 RMK AO2
KEMV 171235Z AUTO 03004KT 10SM OVC050 03/M01 A3037 RMK AO2
KEMV 171215Z AUTO 03004KT 10SM OVC050 03/M01 A3037 RMK AO2
KEMV 171155Z AUTO 03004KT 10SM OVC050 03/M01 A3037 RMK AO2
KEMV 171135Z AUTO 03006KT 10SM OVC050 03/M01 A3036 RMK AO2 TSNO
KEMV 171115Z AUTO 02006KT OVC050 03/M01 A3036 RMK AO2
KEMV 171055Z AUTO 01005KT 10SM OVC050 03/M01 A3035 RMK AO2
KEMV 171035Z AUTO 01005KT 10SM OVC050 03/M01 A3035 RMK AO2
KEMV 171015Z AUTO 01005KT 10SM OVC050 03/00 A3033 RMK AO2
KEMV 170955Z AUTO 00000KT 10SM OVC050 03/00 A3032 RMK AO2
KEMV 170935Z AUTO 00000KT 10SM BKN050 03/00 A3032 RMK AO2
KEMV 170915Z AUTO 36004KT 10SM OVC050 04/00 A3030 RMK AO2
KEMV 170855Z AUTO 00000KT 10SM OVC050 04/00 A3030 RMK AO2
KEMV 170835Z AUTO 00000KT 10SM SCT050 04/00 A3030 RMK AO2
KEMV 170815Z AUTO 00000KT 10SM CLR 04/00 A3028 RMK AO2
KEMV 170755Z AUTO 35004KT 10SM CLR 05/00 A3028 RMK AO2
KEMV 170735Z AUTO 35003KT 10SM CLR 05/00 A3028 RMK AO2
KEMV 170715Z AUTO 36006KT CLR 06/01 A3028 RMK AO2
KEMV 170655Z AUTO 36006KT 10SM CLR 06/01 A3027 RMK AO2
KEMV 170635Z AUTO 36007KT 10SM SCT050 07/01 A3026 RMK AO2
KEMV 170615Z AUTO 36009G16KT 10SM SCT044 BKN050 07/02 A3025 RMK AO2
KEMV 170555Z AUTO 35010G20KT 10SM SCT044 OVC050 08/03 A3024 RMK AO2
KEMV 170535Z AUTO 36004KT 10SM SCT042 OVC050 09/05 A3023 RMK AO2
KEMV 170515Z AUTO 35007KT 10SM SCT042 OVC050 10/06 A3021 RMK AO2
KEMV 170455Z AUTO 35004KT 10SM OVC044 10/07 A3021 RMK AO2
KEMV 170435Z AUTO 36005KT 10SM OVC042 10/07 A3020 RMK AO2
KEMV 170415Z AUTO 36007KT SCT018 SCT029 OVC042 11/08 A3018 RMK AO2
KEMV 170355Z AUTO 01004KT 10SM SCT013 BKN029 OVC049 11/10 A3017 RMK AO2
KEMV 170335Z AUTO 36003KT 10SM SCT018 OVC047 11/10 A3016 RMK AO2
KEMV 170315Z AUTO 36005KT -RA BKN045 BKN080 OVC100 11/10 A3013 RMK AO2
KEMV 170255Z AUTO 00000KT 10SM BKN040 OVC047 12/10 A3013 RMK AO2 P0003
KEMV 170235Z AUTO 02005KT 10SM -RA SCT020 SCT031 OVC038 12/12 A3011 RMK AO2 P0003
KEMV 170215Z AUTO 01006KT 7SM +RA SCT021 BKN028 OVC090 12/11 A3010 RMK AO2 P0002 TSNO
KEMV 170155Z AUTO 24003KT 10SM -RA SCT021 SCT030 OVC080 13/13 A3008 RMK AO2 P0001
KEMV 170135Z AUTO 00000KT 10SM RA OVC080 13/13 A3005 RMK AO2 P0001
KEMV 170115Z AUTO 24003KT 10SM RA OVC080 14/13 A3003 RMK AO2 P0001
KEMV 170055Z AUTO 24004KT 10SM SN OVC080 14/13 A3002 RMK AO2 P0001
KEMV 170035Z AUTO 00000KT 10SM -RA OVC080 14/13 A3002 RMK AO2
KEMV 170015Z AUTO 24003KT -RA OVC080 14/13 A3000 RMK AO2
KEMV 162355Z AUTO 22003KT 10SM RA OVC080 14/14 A2999 RMK AO2
KEMV 162335Z AUTO 22003KT 10SM RA OVC070 14/14 A2998 RMK AO2
KEMV 162315Z AUTO 00000KT 10SM -SN OVC070 15/14 A2996 RMK AO2
KEMV 162255Z AUTO 00000KT -RA OVC070 15/14 A2995 RMK AO2 P0001
KEMV 162235Z AUTO 21003KT 10SM RA OVC060 15/14 A2994 RMK AO2 P0001
KEMV 162215Z AUTO 00000KT 7SM SN OVC060 15/14 A2993 RMK AO2
KEMV 162155Z AUTO 30003KT 10SM DZ OVC050 15/13 A2991 RMK AO2
KEMV 162135Z AUTO 29005KT 5SM -SN OVC048 15/13 A2989 RMK AO2
KEMV 162115Z AUTO 30011G16KT 10SM OVC046 15/13 A2988 RMK AO2
KEMV 162055Z AUTO 30007G10KT 7SM -SN BKN039 OVC046 16/12 A2987 RMK AO2
KEMV 162035Z AUTO 30009G14KT 10SM SCT035 BKN060 OVC090 16/13 A2986 RMK AO2
KEMV 162015Z AUTO 31012G15KT 10SM SCT014 SCT060 OVC085 17/13 A2984 RMK AO2
KEMV 161955Z AUTO 31015KT 10SM BKN012 BKN023 OVC070 17/15 A2983 RMK AO2
KEMV 161935Z AUTO 31009KT 10SM SCT014 SCT048 OVC060 17/16 A2981 RMK AO2
KEMV 161915Z AUTO 30013G17KT 7SM -SN SCT039 OVC050 17/15 A2980 RMK AO2
KEMV 161855Z AUTO 31018G25KT BKN050 OVC060 22/15 A2977 RMK AO2
KEMV 161835Z AUTO 22010G20KT BKN050 OVC060 24/15 A2975 RMK AO2
KEMV 161815Z AUTO 22009G18KT 190V250 10SM OVC050 25/14 A2975 RMK AO2
KEMV 161755Z AUTO 23010G22KT 10SM BKN048 OVC060 24/14 A2976 RMK AO2
KEMV 161735Z AUTO 20013G19KT SCT050 SCT060 25/14 A2976 RMK AO2
KEMV 161715Z AUTO 23014G20KT CLR 25/15 A2977 RMK AO2
KEMV 161655Z AUTO 20010G17KT 170V230 10SM CLR 25/15 A2978 RMK AO2
KEMV 161635Z AUTO 21009G15KT 10SM CLR 23/15 A2979 RMK AO2
KEMV 161615Z AUTO 21009G18KT 10SM CLR 23/15 A2980 RMK AO2
KEMV 161555Z AUTO 22010G15KT 10SM CLR 22/15 A2981 RMK AO2
KEMV 161535Z AUTO 21012G18KT 10SM SCT026 22/15 A2981 RMK AO2
KEMV 161515Z AUTO 20014G20KT SCT026 21/15 A2982 RMK AO2
KEMV 161455Z AUTO 19010G19KT 10SM SCT023 21/15 A2982 RMK AO2
KEMV 161435Z AUTO 20010G18KT 10SM CLR 20/15 A2982 RMK AO2
KEMV 161415Z AUTO 19009G15KT 10SM CLR 19/15 A2982 RMK AO2
KEMV 161355Z AUTO 19007KT 130V210 CLR 18/15 A2982 RMK AO2
KEMV 161335Z AUTO 19008KT 10SM CLR 18/14 A2983 RMK AO2
KEMV 161315Z AUTO 20009KT 10SM CLR 18/14 A2983 RMK AO2
KEMV 161255Z AUTO 20006KT 10SM CLR 17/14 A2982 RMK AO2
KEMV 161235Z AUTO 19007KT 10SM CLR 17/14 A2982 RMK AO2
KEMV 161215Z AUTO 19008KT 10SM CLR 17/13 A2982 RMK AO2
KEMV 161155Z AUTO 19005KT 10SM CLR 17/13 A2981 RMK AO2
KEMV 161135Z AUTO 19008G14KT 10SM CLR 17/13 A2981 RMK AO2
KEMV 161115Z AUTO 18007KT 140V200 10SM CLR 17/13 A2980 RMK AO2
KEMV 161055Z AUTO 19007KT 10SM CLR 17/13 A2981 RMK AO2
KEMV 161035Z AUTO 18007KT 10SM CLR 17/13 A2981 RMK AO2
KEMV 161015Z AUTO 18005KT 10SM CLR 17/13 A2981 RMK AO2
KEMV 160955Z AUTO 17006KT 10SM CLR 17/13 A2981 RMK AO2
KEMV 160935Z AUTO 18005KT 10SM CLR 17/13 A2983 RMK AO2
KEMV 160915Z AUTO 18005KT 10SM CLR 17/13 A2984 RMK AO2
KEMV 160855Z AUTO 20005KT 10SM CLR 17/13 A2985 RMK AO2
KEMV 160835Z AUTO 20006KT 10SM CLR 17/13 A2985 RMK AO2
KEMV 160815Z AUTO 20008KT CLR 17/13 A2984 RMK AO2
KEMV 160755Z AUTO 21006KT 10SM CLR 18/13 A2984 RMK AO2